Time;durP1;ratioP1;P1;durP2;ratioP2;P2;SDS_P1;SDS_P2;PMS_P1;PMS_P2;Temp;Humidity;BMP_temperature;BMP_pressure;BME280_temperature;BME280_humidity;BME280_pressure;Samples;Min_cycle;Max_cycle;Signal;HPM_P1;HPM_P2
2021/03/06 00:01:25;;;;;;;24.52;14.88;;;8.60;91.10;;;;;;6214196;23;20379;-66
2021/03/06 00:03:51;;;;;;;23.73;14.35;;;8.40;91.30;;;;;;6212357;23;20426;-66
2021/03/06 00:06:17;;;;;;;21.90;14.13;;;8.20;92.00;;;;;;6214395;23;20406;-66
2021/03/06 00:08:42;;;;;;;20.20;13.07;;;8.10;92.00;;;;;;6212856;23;20382;-66
2021/03/06 00:11:08;;;;;;;21.27;15.35;;;8.10;92.10;;;;;;6214306;23;20810;-66
2021/03/06 00:13:35;;;;;;;20.60;14.20;;;8.00;92.50;;;;;;6212772;23;20410;-66
2021/03/06 00:16:03;;;;;;;20.95;14.30;;;7.90;92.50;;;;;;6214450;23;20360;-66
2021/03/06 00:18:29;;;;;;;19.65;12.98;;;7.90;92.60;;;;;;6214366;23;20890;-65
2021/03/06 00:20:55;;;;;;;22.42;13.65;;;7.90;92.00;;;;;;6212580;23;20378;-66
2021/03/06 00:23:20;;;;;;;19.90;12.10;;;7.80;91.90;;;;;;6212702;23;20735;-66
2021/03/06 00:25:46;;;;;;;18.17;11.93;;;7.80;91.90;;;;;;6213932;23;20689;-66
2021/03/06 00:28:12;;;;;;;17.52;11.23;;;7.80;91.60;;;;;;6214338;23;20447;-66
2021/03/06 00:30:38;;;;;;;15.90;11.07;;;7.90;91.20;;;;;;6214211;23;20347;-66
2021/03/06 00:33:06;;;;;;;19.45;10.80;;;8.10;90.90;;;;;;6212720;23;20835;-66
2021/03/06 00:35:31;;;;;;;16.73;10.77;;;8.30;90.20;;;;;;6214194;23;20451;-66
2021/03/06 00:37:57;;;;;;;19.77;11.13;;;8.30;90.20;;;;;;6213794;23;20387;-64
2021/03/06 00:40:23;;;;;;;19.98;11.25;;;8.50;88.60;;;;;;6213926;23;20442;-64
2021/03/06 00:42:49;;;;;;;18.67;10.67;;;8.70;87.70;;;;;;6213772;23;20380;-67
2021/03/06 00:45:15;;;;;;;17.40;11.00;;;8.80;87.20;;;;;;6212944;23;20378;-64
2021/03/06 00:47:41;;;;;;;18.85;10.57;;;8.90;86.70;;;;;;6212478;23;20827;-64
2021/03/06 00:50:12;;;;;;;18.13;11.30;;;8.90;86.90;;;;;;6212480;23;20522;-63
2021/03/06 00:52:38;;;;;;;16.57;10.10;;;8.90;86.50;;;;;;6213985;23;20351;-64
2021/03/06 00:55:05;;;;;;;21.42;11.63;;;8.90;86.70;;;;;;6212649;23;20704;-64
2021/03/06 00:57:31;;;;;;;16.65;10.07;;;8.90;87.00;;;;;;6214057;23;20356;-64
2021/03/06 00:59:57;;;;;;;14.45;10.10;;;9.00;85.70;;;;;;6213974;23;20879;-64
2021/03/06 01:02:23;;;;;;;16.73;9.57;;;8.90;86.30;;;;;;6222115;23;20381;-64
2021/03/06 01:04:49;;;;;;;17.50;10.47;;;8.90;85.90;;;;;;6244262;23;20370;-64
2021/03/06 01:07:16;;;;;;;19.45;10.63;;;8.90;85.50;;;;;;6244398;23;20833;-64
2021/03/06 01:09:41;;;;;;;16.02;10.10;;;9.00;85.20;;;;;;6244300;23;20358;-64
2021/03/06 01:12:08;;;;;;;13.77;8.85;;;9.10;84.50;;;;;;6217344;23;20457;-64
2021/03/06 01:14:33;;;;;;;14.57;9.27;;;9.00;85.10;;;;;;6217605;23;20370;-64
2021/03/06 01:16:59;;;;;;;16.27;10.30;;;8.90;85.50;;;;;;6244252;23;20730;-64
2021/03/06 01:19:26;;;;;;;18.50;10.27;;;8.80;85.60;;;;;;6244382;23;20358;-64
2021/03/06 01:21:52;;;;;;;16.80;9.73;;;8.90;85.20;;;;;;6217445;23;20868;-64
2021/03/06 01:24:18;;;;;;;18.23;9.80;;;9.00;83.80;;;;;;6244138;23;20380;-64
2021/03/06 01:26:44;;;;;;;15.80;9.53;;;8.90;84.00;;;;;;6217437;23;20385;-64
2021/03/06 01:29:10;;;;;;;16.48;9.77;;;8.80;83.70;;;;;;6244189;23;20358;-64
2021/03/06 01:31:36;;;;;;;16.88;9.82;;;8.80;83.80;;;;;;6217439;23;20369;-64
2021/03/06 01:34:02;;;;;;;16.25;9.55;;;8.80;83.60;;;;;;6217268;23;20377;-64
2021/03/06 01:36:28;;;;;;;16.23;9.35;;;8.80;84.60;;;;;;6245619;23;20354;-64
2021/03/06 01:38:54;;;;;;;16.70;9.48;;;8.70;84.80;;;;;;6219176;23;20433;-64
2021/03/06 01:41:20;;;;;;;17.23;9.93;;;8.70;84.30;;;;;;6245840;23;20380;-64
2021/03/06 01:43:46;;;;;;;15.73;9.40;;;8.80;84.20;;;;;;6245994;23;20428;-64
2021/03/06 01:46:12;;;;;;;14.40;8.87;;;8.80;83.90;;;;;;6245809;23;20358;-64
2021/03/06 01:48:38;;;;;;;15.40;8.95;;;8.70;84.60;;;;;;6219023;23;20376;-64
2021/03/06 01:51:04;;;;;;;14.45;8.68;;;8.70;83.90;;;;;;6245959;23;20350;-66
2021/03/06 01:53:31;;;;;;;14.15;8.80;;;8.80;83.40;;;;;;6245603;23;20354;-64
2021/03/06 01:55:57;;;;;;;13.43;8.30;;;8.70;84.30;;;;;;6245883;23;20810;-65
2021/03/06 01:58:24;;;;;;;15.80;9.25;;;8.70;83.80;;;;;;6218795;23;20380;-64
2021/03/06 02:00:50;;;;;;;15.70;8.73;;;8.80;83.60;;;;;;6246265;23;20508;-67
2021/03/06 02:03:16;;;;;;;14.15;8.60;;;8.60;84.60;;;;;;6243178;22;20641;-65
2021/03/06 02:05:43;;;;;;;18.45;9.68;;;8.50;85.10;;;;;;6218377;23;20378;-66
2021/03/06 02:08:10;;;;;;;17.48;9.70;;;8.40;85.70;;;;;;6218262;23;20370;-64
2021/03/06 02:10:39;;;;;;;13.98;8.50;;;8.40;84.60;;;;;;6245620;23;20354;-64
2021/03/06 02:13:23;;;;;;;12.87;8.23;;;8.30;85.40;;;;;;6245642;23;20408;-64
2021/03/06 02:16:04;;;;;;;15.20;9.43;;;8.40;84.30;;;;;;6218791;23;20374;-64
2021/03/06 02:18:35;;;;;;;15.05;8.45;;;8.60;83.90;;;;;;6245489;23;20355;-64
2021/03/06 02:21:05;;;;;;;11.48;8.05;;;8.60;83.20;;;;;;6218566;23;20436;-64
2021/03/06 02:24:07;;;;;;;14.13;8.23;;;8.60;83.70;;;;;;6245476;23;20354;-65
2021/03/06 02:26:44;;;;;;;16.08;8.77;;;8.70;82.90;;;;;;6245503;23;20350;-64
2021/03/06 02:29:38;;;;;;;14.02;8.52;;;8.50;84.30;;;;;;6218202;23;20748;-64
2021/03/06 02:32:11;;;;;;;15.15;8.38;;;8.50;83.90;;;;;;6231169;23;20388;-64
2021/03/06 02:34:40;;;;;;;13.17;7.43;;;8.60;83.30;;;;;;6245662;23;20382;-64
2021/03/06 02:37:08;;;;;;;13.95;8.00;;;8.50;83.60;;;;;;6245412;23;20358;-65
2021/03/06 02:39:45;;;;;;;14.27;8.45;;;8.50;83.20;;;;;;6245181;23;20354;-64
2021/03/06 02:42:15;;;;;;;12.95;8.07;;;8.60;82.90;;;;;;6245065;23;20370;-64
2021/03/06 02:44:42;;;;;;;15.43;8.65;;;8.50;83.30;;;;;;6218284;23;20405;-64
2021/03/06 02:47:08;;;;;;;12.55;8.10;;;8.40;83.40;;;;;;6244974;23;20368;-65
2021/03/06 02:49:35;;;;;;;15.35;8.57;;;8.40;83.10;;;;;;6218323;23;20726;-66
2021/03/06 02:52:01;;;;;;;14.90;8.32;;;8.40;83.50;;;;;;6245239;23;20361;-64
2021/03/06 02:54:27;;;;;;;15.52;8.45;;;8.50;82.60;;;;;;6218051;23;20378;-64
2021/03/06 02:56:54;;;;;;;13.65;8.07;;;8.50;83.30;;;;;;6218506;23;20766;-64
2021/03/06 02:59:38;;;;;;;14.52;7.90;;;8.40;83.60;;;;;;6245115;23;20358;-64
2021/03/06 03:02:13;;;;;;;13.65;7.97;;;8.50;82.80;;;;;;6245245;23;20453;-64
2021/03/06 03:04:50;;;;;;;13.23;7.88;;;8.50;82.70;;;;;;6268261;22;20378;-64
2021/03/06 03:07:22;;;;;;;13.10;7.75;;;8.50;82.60;;;;;;6248890;22;20422;-64
2021/03/06 03:09:52;;;;;;;12.57;7.40;;;8.40;83.10;;;;;;6275757;22;20356;-64
2021/03/06 03:12:22;;;;;;;14.40;8.38;;;8.40;83.00;;;;;;6275772;22;20733;-64
2021/03/06 03:14:54;;;;;;;13.43;7.45;;;8.50;83.00;;;;;;6275975;22;20357;-66
2021/03/06 03:17:27;;;;;;;12.25;8.00;;;8.60;82.10;;;;;;6248607;22;20376;-67
2021/03/06 03:19:58;;;;;;;10.73;7.53;;;8.70;81.40;;;;;;6275824;22;20807;-66
2021/03/06 03:22:27;;;;;;;11.00;7.25;;;8.70;81.80;;;;;;6275685;22;20811;-66
2021/03/06 03:24:56;;;;;;;13.85;7.75;;;8.60;82.40;;;;;;6248354;22;20378;-66
2021/03/06 03:27:23;;;;;;;12.30;7.25;;;8.50;82.00;;;;;;6248621;22;20643;-66
2021/03/06 03:29:50;;;;;;;13.43;7.75;;;8.50;82.60;;;;;;6276224;22;20375;-64
2021/03/06 03:32:17;;;;;;;14.07;7.25;;;8.40;82.50;;;;;;6275758;22;20348;-65
2021/03/06 03:34:44;;;;;;;14.57;7.40;;;8.50;82.10;;;;;;6275646;22;20379;-64
2021/03/06 03:37:11;;;;;;;12.35;7.97;;;8.30;82.10;;;;;;6248425;22;20891;-64
2021/03/06 03:39:38;;;;;;;23.98;14.95;;;8.30;82.50;;;;;;6275727;22;20352;-64
2021/03/06 03:42:06;;;;;;;22.05;15.30;;;8.30;90.40;;;;;;6275492;22;20377;-64
2021/03/06 03:44:33;;;;;;;25.55;18.23;;;8.20;91.00;;;;;;6275673;22;20352;-64
2021/03/06 03:46:59;;;;;;;25.40;17.90;;;8.20;93.20;;;;;;6275372;22;20352;-64
2021/03/06 03:49:26;;;;;;;27.20;18.85;;;8.30;94.50;;;;;;6275543;22;20676;-65
2021/03/06 03:51:54;;;;;;;29.33;18.92;;;8.40;95.00;;;;;;6275516;22;20348;-64
2021/03/06 03:54:21;;;;;;;28.70;18.63;;;8.50;96.30;;;;;;6248303;22;20379;-64
2021/03/06 03:56:47;;;;;;;31.45;19.75;;;8.50;97.70;;;;;;6273950;22;20699;-64
2021/03/06 03:59:13;;;;;;;36.65;22.90;;;8.60;99.10;;;;;;6247755;22;20376;-64
2021/03/06 04:01:40;;;;;;;38.63;23.77;;;8.60;99.90;;;;;;6275444;22;20384;-64
2021/03/06 04:04:07;;;;;;;36.92;24.23;;;8.60;99.90;;;;;;6247901;22;20387;-64
2021/03/06 04:06:34;;;;;;;41.90;25.30;;;8.50;99.90;;;;;;6275470;22;20661;-65
2021/03/06 04:09:01;;;;;;;40.85;25.42;;;8.50;99.90;;;;;;6274977;22;20371;-64
2021/03/06 04:11:27;;;;;;;43.10;25.35;;;8.50;99.90;;;;;;6248088;22;20375;-64
2021/03/06 04:13:52;;;;;;;40.50;25.02;;;8.60;99.90;;;;;;6275576;22;20700;-64
2021/03/06 04:16:18;;;;;;;40.88;25.23;;;8.90;99.90;;;;;;6275421;22;20348;-64
2021/03/06 04:18:44;;;;;;;39.97;26.02;;;;;;;;;;6275173;22;20435;-65
2021/03/06 04:21:11;;;;;;;38.00;25.97;;;;;;;;;;6275426;22;20376;-64
2021/03/06 04:23:37;;;;;;;40.10;25.33;;;;;;;;;;6275022;22;20356;-64
2021/03/06 04:26:04;;;;;;;41.38;25.80;;;;;;;;;;6275427;22;20360;-64
2021/03/06 04:28:30;;;;;;;44.97;26.73;;;;;;;;;;6275133;22;20431;-64
2021/03/06 04:30:56;;;;;;;41.95;27.20;;;;;;;;;;6275261;22;20851;-64
2021/03/06 04:33:22;;;;;;;39.00;27.30;;;9.00;99.90;;;;;;6275352;22;20383;-65
2021/03/06 04:35:48;;;;;;;47.20;28.40;;;8.80;99.90;;;;;;6273837;22;20368;-64
2021/03/06 04:38:14;;;;;;;43.97;29.35;;;8.70;99.90;;;;;;6274582;22;20650;-64
2021/03/06 04:40:39;;;;;;;52.75;32.70;;;8.60;99.90;;;;;;6246883;22;20459;-64
2021/03/06 04:43:06;;;;;;;51.47;35.73;;;8.60;99.90;;;;;;6272969;22;20405;-64
2021/03/06 04:45:32;;;;;;;51.87;36.07;;;8.60;99.90;;;;;;6274514;22;20804;-64
2021/03/06 04:47:58;;;;;;;49.75;36.53;;;8.60;99.90;;;;;;6247245;22;20387;-67
2021/03/06 04:50:24;;;;;;;52.30;35.20;;;8.60;99.90;;;;;;6274425;22;20360;-67
2021/03/06 04:52:50;;;;;;;50.95;34.75;;;8.50;99.90;;;;;;6274496;22;20677;-64
2021/03/06 04:55:16;;;;;;;49.60;33.77;;;8.50;99.90;;;;;;6274615;22;20421;-64
2021/03/06 04:57:41;;;;;;;54.87;35.63;;;8.50;99.90;;;;;;6274567;22;20356;-64
2021/03/06 05:00:10;;;;;;;48.63;34.53;;;8.50;99.90;;;;;;6274909;22;20383;-64
2021/03/06 05:02:36;;;;;;;49.50;35.72;;;8.40;99.90;;;;;;6274787;22;20455;-64
2021/03/06 05:05:03;;;;;;;46.13;34.22;;;8.40;99.90;;;;;;6274622;22;20372;-64
2021/03/06 05:07:29;;;;;;;50.72;35.92;;;8.40;99.90;;;;;;6247833;22;20375;-64
2021/03/06 05:09:55;;;;;;;56.08;39.20;;;8.40;99.90;;;;;;6274749;22;20352;-64
2021/03/06 05:12:21;;;;;;;52.15;38.58;;;8.40;99.90;;;;;;6276742;22;20355;-64
2021/03/06 05:14:47;;;;;;;54.30;38.45;;;8.40;99.90;;;;;;6276740;22;20355;-64
2021/03/06 05:17:14;;;;;;;53.30;38.83;;;8.40;99.90;;;;;;6277050;22;20397;-64
2021/03/06 05:19:40;;;;;;;50.78;38.70;;;8.30;99.90;;;;;;6276843;22;20360;-64
2021/03/06 05:22:05;;;;;;;49.97;38.15;;;8.30;99.90;;;;;;6249220;22;20391;-63
2021/03/06 05:24:31;;;;;;;50.03;36.90;;;8.30;99.90;;;;;;6276325;22;20417;-64
2021/03/06 05:27:03;;;;;;;50.67;37.13;;;8.30;99.90;;;;;;6276512;22;20431;-64
2021/03/06 05:29:29;;;;;;;47.42;35.67;;;8.30;99.90;;;;;;6249491;22;20463;-64
2021/03/06 05:31:55;;;;;;;46.97;34.90;;;8.30;99.90;;;;;;6276591;22;20402;-64
2021/03/06 05:34:22;;;;;;;41.15;32.38;;;8.40;99.90;;;;;;6274548;22;20367;-64
2021/03/06 05:36:49;;;;;;;41.45;31.35;;;8.30;99.90;;;;;;6276040;22;20360;-65
2021/03/06 05:39:15;;;;;;;42.90;33.00;;;8.30;99.90;;;;;;6276258;22;20348;-65
2021/03/06 05:41:40;;;;;;;41.35;32.08;;;8.40;99.90;;;;;;6276313;22;20382;-64
2021/03/06 05:44:07;;;;;;;41.43;31.47;;;8.30;99.90;;;;;;6275458;22;20356;-64
2021/03/06 05:46:33;;;;;;;38.90;30.50;;;8.30;99.90;;;;;;6275941;22;20388;-64
2021/03/06 05:48:58;;;;;;;36.92;29.77;;;8.30;99.90;;;;;;6275712;22;20360;-64
2021/03/06 05:51:27;;;;;;;36.10;28.10;;;8.30;99.90;;;;;;6276434;22;20344;-64
2021/03/06 05:53:53;;;;;;;39.20;27.85;;;8.20;99.90;;;;;;6249300;22;20379;-64
2021/03/06 05:56:20;;;;;;;36.58;28.60;;;8.20;99.90;;;;;;6276578;22;20812;-64
2021/03/06 05:58:47;;;;;;;39.92;29.92;;;8.20;99.90;;;;;;6276587;22;20823;-64
2021/03/06 06:01:14;;;;;;;38.53;28.75;;;8.20;99.90;;;;;;6276528;22;20376;-65
2021/03/06 06:03:41;;;;;;;36.08;28.27;;;8.20;99.90;;;;;;6276203;22;20854;-64
2021/03/06 06:06:08;;;;;;;36.88;28.60;;;8.20;99.90;;;;;;6276382;22;20352;-63
2021/03/06 06:08:36;;;;;;;38.42;31.27;;;8.20;99.90;;;;;;6276373;22;20359;-64
2021/03/06 06:11:03;;;;;;;39.60;31.63;;;8.20;99.90;;;;;;6276389;22;20406;-64
2021/03/06 06:13:28;;;;;;;40.72;31.73;;;8.10;99.90;;;;;;6276307;22;20356;-64
2021/03/06 06:15:55;;;;;;;44.17;34.35;;;8.00;99.90;;;;;;6276434;22;20359;-64
2021/03/06 06:18:20;;;;;;;48.33;35.65;;;8.00;99.90;;;;;;6276148;22;20425;-64
2021/03/06 06:20:47;;;;;;;49.05;36.70;;;7.90;99.90;;;;;;6275756;22;20438;-64
2021/03/06 06:23:14;;;;;;;47.95;36.58;;;7.80;99.90;;;;;;6247584;22;20359;-64
2021/03/06 06:25:41;;;;;;;50.15;37.00;;;7.80;99.90;;;;;;6275940;22;20367;-64
2021/03/06 06:28:08;;;;;;;46.15;36.13;;;7.80;99.90;;;;;;6275633;22;20370;-64
2021/03/06 06:30:34;;;;;;;44.72;34.08;;;7.90;99.90;;;;;;6248491;22;20429;-64
2021/03/06 06:33:00;;;;;;;44.80;34.75;;;8.00;99.90;;;;;;6276238;22;20435;-64
2021/03/06 06:35:26;;;;;;;43.47;33.83;;;7.90;99.90;;;;;;6275521;22;20352;-64
2021/03/06 06:38:00;;;;;;;44.20;34.35;;;7.90;99.90;;;;;;6249093;22;20372;-64
2021/03/06 06:40:28;;;;;;;49.22;37.35;;;8.10;99.90;;;;;;6275866;22;20352;-64
2021/03/06 06:42:55;;;;;;;49.22;38.75;;;8.20;99.90;;;;;;6248850;22;20376;-64
2021/03/06 06:45:22;;;;;;;42.15;33.92;;;8.10;99.90;;;;;;6275477;22;20356;-64
2021/03/06 06:47:49;;;;;;;21.15;18.48;;;8.00;99.90;;;;;;6275872;22;20364;-64
2021/03/06 06:50:28;;;;;;;16.90;14.17;;;7.90;99.90;;;;;;6248737;22;20411;-66
2021/03/06 06:52:54;;;;;;;13.88;12.40;;;7.80;99.90;;;;;;6248266;22;20372;-64
2021/03/06 06:55:20;;;;;;;10.10;9.02;;;7.70;99.90;;;;;;6275309;22;20440;-64
2021/03/06 06:57:47;;;;;;;11.20;9.40;;;7.70;99.90;;;;;;6275413;22;20821;-64
2021/03/06 07:00:15;;;;;;;11.35;9.52;;;7.60;99.90;;;;;;6275802;22;20380;-64
2021/03/06 07:02:51;;;;;;;9.48;8.30;;;7.60;99.90;;;;;;6274965;22;20372;-65
2021/03/06 07:05:26;;;;;;;7.85;7.03;;;7.60;99.90;;;;;;6274535;22;20396;-64
2021/03/06 07:07:52;;;;;;;6.07;5.45;;;7.50;99.90;;;;;;6274924;22;20406;-64
2021/03/06 07:10:18;;;;;;;6.43;5.72;;;7.50;99.90;;;;;;6275069;22;20360;-64
2021/03/06 07:12:46;;;;;;;8.25;6.47;;;7.40;99.90;;;;;;6274826;22;20383;-64
2021/03/06 07:15:20;;;;;;;8.63;7.03;;;7.20;99.90;;;;;;6274818;22;20357;-64
2021/03/06 07:17:48;;;;;;;9.25;7.55;;;7.20;99.90;;;;;;6247607;22;20380;-65
2021/03/06 07:20:31;;;;;;;7.70;6.90;;;7.10;99.90;;;;;;6274826;22;20367;-64
2021/03/06 07:22:58;;;;;;;10.55;9.20;;;7.10;99.90;;;;;;6247520;22;20470;-68
2021/03/06 07:25:26;;;;;;;9.95;7.60;;;7.00;99.90;;;;;;6274885;22;20359;-64
2021/03/06 07:27:52;;;;;;;8.32;7.38;;;7.00;99.90;;;;;;6275039;22;20348;-64
2021/03/06 07:30:20;;;;;;;7.27;5.93;;;7.10;99.90;;;;;;6247727;22;20412;-64
2021/03/06 07:32:47;;;;;;;6.85;6.15;;;7.10;99.90;;;;;;6274815;22;20418;-63
2021/03/06 07:35:14;;;;;;;12.07;9.10;;;7.10;99.90;;;;;;6274783;22;20367;-63
2021/03/06 07:37:42;;;;;;;11.13;9.27;;;7.00;99.90;;;;;;6274398;22;20443;-64
2021/03/06 07:40:10;;;;;;;10.00;7.95;;;7.00;99.90;;;;;;6274613;22;20360;-64
2021/03/06 07:42:42;;;;;;;8.07;7.20;;;7.10;99.90;;;;;;6274592;22;20534;-64
2021/03/06 07:45:10;;;;;;;7.90;7.10;;;7.00;99.90;;;;;;6274671;22;20360;-64
2021/03/06 07:47:39;;;;;;;7.38;6.57;;;7.00;99.90;;;;;;6247344;22;20367;-64
2021/03/06 07:50:08;;;;;;;7.70;6.90;;;7.00;99.90;;;;;;6273199;22;20423;-64
2021/03/06 07:52:38;;;;;;;7.05;6.35;;;7.10;99.90;;;;;;6247497;22;20368;-64
2021/03/06 07:55:09;;;;;;;8.48;7.40;;;7.20;99.90;;;;;;6274634;22;20352;-64
2021/03/06 07:58:00;;;;;;;7.60;6.80;;;7.20;99.90;;;;;;6274997;22;20797;-63
2021/03/06 08:00:44;;;;;;;8.67;7.77;;;7.30;99.90;;;;;;6275488;22;20359;-64
2021/03/06 08:03:36;;;;;;;8.27;7.07;;;7.30;99.90;;;;;;6274983;22;20360;-65
2021/03/06 08:06:16;;;;;;;8.47;7.57;;;7.30;99.90;;;;;;6275408;22;20812;-64
2021/03/06 08:09:09;;;;;;;8.85;7.95;;;7.40;99.90;;;;;;6275123;22;20348;-64
2021/03/06 08:11:43;;;;;;;14.70;12.45;;;7.30;99.90;;;;;;6275185;22;20363;-63
2021/03/06 08:14:42;;;;;;;13.73;11.48;;;7.30;99.90;;;;;;6275142;22;20365;-64
2021/03/06 08:17:30;;;;;;;10.52;9.48;;;7.30;99.90;;;;;;6275320;22;20356;-64
2021/03/06 08:19:57;;;;;;;13.80;12.20;;;7.40;99.90;;;;;;6275212;22;20760;-64
2021/03/06 08:22:23;;;;;;;6.68;5.97;;;7.30;99.90;;;;;;6248239;22;20441;-64
2021/03/06 08:24:49;;;;;;;6.38;5.80;;;7.20;99.90;;;;;;6275374;22;20345;-63
2021/03/06 08:27:22;;;;;;;8.68;7.78;;;7.10;99.90;;;;;;6275068;22;20339;-64
2021/03/06 08:29:53;;;;;;;5.60;5.10;;;7.10;99.90;;;;;;6274093;22;20421;-64
2021/03/06 08:32:33;;;;;;;5.00;4.05;;;7.00;99.90;;;;;;6274099;22;20352;-64
2021/03/06 08:35:17;;;;;;;10.35;6.60;;;7.10;99.90;;;;;;6273295;22;20395;-63
2021/03/06 08:37:44;;;;;;;15.68;11.90;;;7.10;99.90;;;;;;6275220;22;20359;-64
2021/03/06 08:40:15;;;;;;;4.35;3.95;;;7.10;99.90;;;;;;6248065;22;20372;-64
2021/03/06 08:42:44;;;;;;;2.97;2.70;;;7.10;99.90;;;;;;6275201;22;20380;-64
2021/03/06 08:45:13;;;;;;;4.33;3.93;;;7.10;99.90;;;;;;6275636;22;20387;-65
2021/03/06 08:47:40;;;;;;;7.05;6.45;;;7.10;99.90;;;;;;6277317;22;20409;-64
2021/03/06 08:50:10;;;;;;;9.57;8.57;;;7.10;99.90;;;;;;6249591;22;20874;-64
2021/03/06 08:52:36;;;;;;;3.25;2.97;;;7.20;99.90;;;;;;6276762;22;20358;-65
2021/03/06 08:55:03;;;;;;;4.47;3.60;;;7.20;99.90;;;;;;6276842;22;20387;-64
2021/03/06 08:57:31;;;;;;;3.47;3.17;;;7.20;99.90;;;;;;6249467;22;20767;-64
2021/03/06 08:59:58;;;;;;;3.22;2.92;;;7.30;99.90;;;;;;6250033;22;20371;-64
2021/03/06 09:02:29;;;;;;;5.15;4.20;;;7.30;99.90;;;;;;6249840;22;20763;-64
2021/03/06 09:05:10;;;;;;;5.18;4.68;;;7.30;99.90;;;;;;6276929;22;20745;-64
2021/03/06 09:07:38;;;;;;;6.57;5.97;;;7.20;99.90;;;;;;6276749;22;20356;-64
2021/03/06 09:10:28;;;;;;;10.45;7.82;;;7.20;99.90;;;;;;6275293;22;20844;-64
2021/03/06 09:12:56;;;;;;;7.07;6.07;;;7.20;99.90;;;;;;6266770;22;20367;-64
2021/03/06 09:15:27;;;;;;;5.03;4.38;;;7.10;99.90;;;;;;6275084;22;20359;-64
2021/03/06 09:17:53;;;;;;;4.82;4.43;;;7.00;99.90;;;;;;6275898;22;20356;-64
2021/03/06 09:20:21;;;;;;;2.78;2.58;;;6.90;99.90;;;;;;6275518;22;20739;-64
2021/03/06 09:22:49;;;;;;;4.18;3.88;;;;;;;;;;6275741;22;20439;-64
2021/03/06 09:25:15;;;;;;;5.45;4.80;;;;;;;;;;6248770;22;20368;-64
2021/03/06 09:27:45;;;;;;;3.50;2.75;;;;;;;;;;6249654;22;20727;-64
2021/03/06 09:30:23;;;;;;;2.67;2.45;;;6.80;99.90;;;;;;6249608;22;20364;-62
2021/03/06 09:32:50;;;;;;;1.95;1.58;;;6.60;99.90;;;;;;6248707;22;20815;-63
2021/03/06 09:35:17;;;;;;;2.00;1.80;;;6.70;99.90;;;;;;6276282;22;20379;-63
2021/03/06 09:37:44;;;;;;;3.45;2.75;;;6.60;99.90;;;;;;6249301;22;20417;-63
2021/03/06 09:40:21;;;;;;;3.53;2.88;;;6.60;99.90;;;;;;6276524;22;20356;-63
2021/03/06 09:42:50;;;;;;;3.08;2.13;;;6.70;99.90;;;;;;6276093;22;20380;-62
2021/03/06 09:45:16;;;;;;;3.47;2.90;;;6.60;99.90;;;;;;6245531;22;20459;-63
2021/03/06 09:47:43;;;;;;;2.78;2.28;;;6.60;99.90;;;;;;6246877;22;20727;-62
2021/03/06 09:50:11;;;;;;;2.43;2.23;;;6.50;99.90;;;;;;6274459;22;20356;-63
2021/03/06 09:52:37;;;;;;;2.33;2.13;;;6.60;99.90;;;;;;6274744;22;20356;-65
2021/03/06 09:55:15;;;;;;;2.83;2.63;;;6.70;99.90;;;;;;6247790;22;20372;-63
2021/03/06 09:57:41;;;;;;;1.83;1.73;;;6.60;99.90;;;;;;6274458;22;20363;-63
2021/03/06 10:00:19;;;;;;;3.08;2.10;;;6.50;99.90;;;;;;6275372;22;20799;-63
2021/03/06 10:02:47;;;;;;;3.10;2.13;;;6.40;99.90;;;;;;6274369;22;20380;-63
2021/03/06 10:05:14;;;;;;;3.00;2.70;;;6.50;99.90;;;;;;6274922;22;20394;-63
2021/03/06 10:07:41;;;;;;;2.90;2.55;;;6.40;99.90;;;;;;6273464;22;20422;-64
2021/03/06 10:10:09;;;;;;;1.92;1.42;;;6.40;99.90;;;;;;6274516;22;20365;-63
2021/03/06 10:12:35;;;;;;;2.70;2.25;;;6.40;99.90;;;;;;6274557;22;20402;-65
2021/03/06 10:15:01;;;;;;;2.30;2.10;;;6.60;99.90;;;;;;6274744;22;20451;-64
2021/03/06 10:17:27;;;;;;;2.40;2.00;;;6.60;99.90;;;;;;6247848;22;20825;-64
2021/03/06 10:19:54;;;;;;;1.95;1.85;;;6.50;99.90;;;;;;6274118;22;20360;-63
2021/03/06 10:22:22;;;;;;;2.10;1.90;;;6.50;99.90;;;;;;6274471;22;20380;-65
2021/03/06 10:24:52;;;;;;;2.10;1.90;;;6.50;99.90;;;;;;6247654;22;20421;-63
2021/03/06 10:27:31;;;;;;;2.40;1.83;;;6.50;99.90;;;;;;6275129;22;20850;-63
2021/03/06 10:30:13;;;;;;;2.45;2.25;;;6.40;99.90;;;;;;6247749;22;20374;-63
2021/03/06 10:32:40;;;;;;;2.15;1.75;;;6.30;99.90;;;;;;6247962;22;20368;-64
2021/03/06 10:35:27;;;;;;;1.85;1.75;;;6.40;99.90;;;;;;6273063;22;20379;-65
2021/03/06 10:37:53;;;;;;;1.55;1.30;;;6.40;99.90;;;;;;6274898;22;20353;-65
2021/03/06 10:40:19;;;;;;;1.95;1.60;;;6.40;99.90;;;;;;6274535;22;20356;-63
2021/03/06 10:42:50;;;;;;;1.27;1.00;;;6.50;99.90;;;;;;6274605;22;20379;-63
2021/03/06 10:45:24;;;;;;;1.30;1.20;;;6.50;99.90;;;;;;6274747;22;20904;-64
2021/03/06 10:47:52;;;;;;;1.10;1.00;;;6.50;99.90;;;;;;6274415;22;20363;-63
2021/03/06 10:50:24;;;;;;;1.67;1.10;;;6.60;99.90;;;;;;6247273;22;20372;-64
2021/03/06 10:52:51;;;;;;;1.05;0.77;;;6.70;99.90;;;;;;6274459;22;20352;-64
2021/03/06 10:55:17;;;;;;;1.08;0.85;;;6.70;99.90;;;;;;6274840;22;20719;-63
2021/03/06 10:57:50;;;;;;;2.50;1.95;;;6.80;99.90;;;;;;6274356;22;20360;-63
2021/03/06 11:00:21;;;;;;;1.27;0.82;;;6.90;99.90;;;;;;6275056;22;20835;-63
2021/03/06 11:02:55;;;;;;;0.75;0.73;;;7.00;99.90;;;;;;6274589;22;20422;-63
2021/03/06 11:05:22;;;;;;;1.20;0.90;;;7.00;99.90;;;;;;6273856;22;20368;-63
2021/03/06 11:07:48;;;;;;;0.82;0.70;;;6.90;99.90;;;;;;6272961;22;20364;-64
2021/03/06 11:10:16;;;;;;;0.80;0.60;;;7.00;99.90;;;;;;6247283;22;20450;-64
2021/03/06 11:12:54;;;;;;;0.90;0.70;;;7.20;99.90;;;;;;6247229;22;20364;-64
2021/03/06 11:15:24;;;;;;;0.77;0.70;;;7.30;99.90;;;;;;6274490;22;20723;-64
2021/03/06 11:17:54;;;;;;;1.30;0.70;;;7.20;99.90;;;;;;6274314;22;20380;-64
2021/03/06 11:20:20;;;;;;;1.48;1.00;;;7.10;99.90;;;;;;6273924;22;20826;-63
2021/03/06 11:22:46;;;;;;;1.60;1.00;;;7.00;99.90;;;;;;6273620;22;20376;-64
2021/03/06 11:25:14;;;;;;;0.98;0.90;;;7.00;99.90;;;;;;6246768;22;20372;-64
2021/03/06 11:27:51;;;;;;;0.82;0.80;;;7.00;99.90;;;;;;6274209;22;20864;-63
2021/03/06 11:30:21;;;;;;;0.88;0.70;;;7.00;99.90;;;;;;6246871;22;20463;-64
2021/03/06 11:32:47;;;;;;;1.60;0.83;;;7.00;99.90;;;;;;6247574;22;20440;-63
2021/03/06 11:35:14;;;;;;;1.05;0.70;;;7.00;99.90;;;;;;6273868;22;20394;-66
2021/03/06 11:37:40;;;;;;;1.67;1.40;;;6.90;99.90;;;;;;6246807;22;20438;-64
2021/03/06 11:40:08;;;;;;;1.17;0.88;;;6.90;99.90;;;;;;6274064;22;20792;-63
2021/03/06 11:42:35;;;;;;;1.50;1.15;;;6.90;99.90;;;;;;6246814;22;20384;-63
2021/03/06 11:45:01;;;;;;;1.80;1.08;;;6.90;99.90;;;;;;6273714;22;20382;-63
2021/03/06 11:47:28;;;;;;;1.45;0.82;;;6.80;99.90;;;;;;6274150;22;20827;-62
2021/03/06 11:49:54;;;;;;;1.30;0.93;;;6.70;99.90;;;;;;6246500;22;20368;-63
2021/03/06 11:52:20;;;;;;;1.30;1.20;;;6.70;99.90;;;;;;6246761;22;20434;-63
2021/03/06 11:54:46;;;;;;;1.00;0.90;;;6.70;99.90;;;;;;6274175;22;20363;-63
2021/03/06 11:57:12;;;;;;;2.05;1.30;;;6.70;99.90;;;;;;6274177;22;20777;-63
2021/03/06 11:59:37;;;;;;;1.52;1.15;;;6.80;99.90;;;;;;6274255;22;20681;-63
2021/03/06 12:02:04;;;;;;;1.20;0.90;;;6.80;99.90;;;;;;6246961;22;20387;-63
2021/03/06 12:04:31;;;;;;;1.25;1.02;;;6.80;99.90;;;;;;6273517;22;20368;-63
2021/03/06 12:06:57;;;;;;;1.30;0.95;;;6.90;99.90;;;;;;6247001;22;20372;-63
2021/03/06 12:09:23;;;;;;;0.63;0.50;;;6.90;99.90;;;;;;6273942;22;20359;-63
2021/03/06 12:11:48;;;;;;;0.88;0.57;;;7.00;99.90;;;;;;6273945;22;20356;-64
2021/03/06 12:14:14;;;;;;;1.10;0.70;;;7.10;99.90;;;;;;6273866;22;20824;-64
2021/03/06 12:16:40;;;;;;;0.90;0.80;;;7.20;99.90;;;;;;6274013;22;20435;-63
2021/03/06 12:19:06;;;;;;;0.65;0.60;;;7.30;99.90;;;;;;6273942;22;20364;-63
2021/03/06 12:21:33;;;;;;;5.45;4.43;;;7.30;99.90;;;;;;6272799;22;20376;-65
2021/03/06 12:23:59;;;;;;;9.13;6.13;;;7.40;99.90;;;;;;6273631;22;20364;-65
2021/03/06 12:26:25;;;;;;;7.15;5.20;;;7.50;99.90;;;;;;6273784;22;20406;-64
2021/03/06 12:28:51;;;;;;;1.15;0.95;;;7.50;99.90;;;;;;6273830;22;20439;-65
2021/03/06 12:31:17;;;;;;;2.95;2.53;;;7.70;99.90;;;;;;6273936;22;20376;-63
2021/03/06 12:33:43;;;;;;;1.20;1.10;;;7.80;99.90;;;;;;6246733;22;20422;-64
2021/03/06 12:36:09;;;;;;;1.80;0.85;;;7.90;99.90;;;;;;6273455;22;20363;-64
2021/03/06 12:38:36;;;;;;;0.90;0.80;;;7.90;99.90;;;;;;6273233;22;20658;-65
2021/03/06 12:41:02;;;;;;;1.67;1.00;;;;;;;;;;6245028;22;20376;-64
2021/03/06 12:43:28;;;;;;;0.95;0.60;;;;;;;;;;6272802;22;20441;-66
2021/03/06 12:45:55;;;;;;;0.50;0.50;;;;;;;;;;6268893;22;20406;-65
2021/03/06 12:48:21;;;;;;;0.70;0.60;;;;;;;;;;6272162;22;20367;-64
2021/03/06 12:50:47;;;;;;;0.60;0.50;;;;;;;;;;6272182;22;20363;-66
2021/03/06 12:53:13;;;;;;;0.90;0.70;;;;;;;;;;6272606;22;20348;-63
2021/03/06 12:55:40;;;;;;;0.70;0.50;;;8.00;99.90;;;;;;6273312;22;20356;-64
2021/03/06 12:58:06;;;;;;;1.45;0.70;;;;;;;;;;6243992;22;20407;-65
2021/03/06 13:00:32;;;;;;;1.27;0.90;;;;;;;;;;6270482;22;20356;-64